Time;durP1;ratioP1;P1;durP2;ratioP2;P2;SDS_P1;SDS_P2;PMS_P1;PMS_P2;Temp;Humidity;BMP_temperature;BMP_pressure;BME280_temperature;BME280_humidity;BME280_pressure;Samples;Min_cycle;Max_cycle;Signal;HPM_P1;HPM_P2
2021/07/05 00:01:58;;;;;;;;;;;;;;;-148.22;100.00;58358.63;4976235;28;1355;-78
2021/07/05 00:04:37;;;;;;;;;;;;;;;-148.22;100.00;58358.63;4977470;28;803;-79
2021/07/05 00:07:03;;;;;;;;;;;;;;;-148.22;100.00;58358.63;4976138;28;1953;-78
2021/07/05 00:09:28;;;;;;;;;;;;;;;-148.22;100.00;58358.63;4975966;28;1448;-78
2021/07/05 00:11:54;;;;;;;;;;;;;;;-148.22;100.00;58358.63;4977086;28;883;-79
2021/07/05 00:14:20;;;;;;;;;;;;;;;-148.22;100.00;58358.63;4977294;28;847;-78
2021/07/05 00:16:53;;;;;;;;;;;;;;;-148.22;100.00;58358.63;4976123;28;1314;-79
2021/07/05 00:19:28;;;;;;;;;;;;;;;-148.22;100.00;58358.63;4977296;28;981;-78
2021/07/05 00:21:54;;;;;;;;;;;;;;;-148.22;100.00;58358.63;4975962;28;1271;-79
2021/07/05 00:24:20;;;;;;;;;;;;;;;-148.22;100.00;58358.63;4976035;28;1344;-78
2021/07/05 00:27:00;;;;;;;;;;;;;;;-148.22;100.00;58358.63;4977193;28;1981;-78
2021/07/05 00:29:36;;;;;;;;;;;;;;;-148.22;100.00;58358.63;4977117;28;804;-79
2021/07/05 00:32:01;;;;;;;;;;;;;;;-148.22;100.00;58358.63;4975822;28;1110;-79
2021/07/05 00:34:28;;;;;;;;;;;;;;;-148.22;100.00;58358.63;4976917;28;1125;-79
2021/07/05 00:37:00;;;;;;;;;;;;;;;-148.22;100.00;58358.63;4975790;28;1177;-78
2021/07/05 00:39:26;;;;;;;;;;;;;;;-148.22;100.00;58358.63;4975735;28;1149;-78
2021/07/05 00:41:53;;;;;;;;;;;;;;;-148.22;100.00;58358.63;4975726;28;1344;-78
2021/07/05 00:44:28;;;;;;;;;;;;;;;-148.22;100.00;58358.63;4975498;28;1220;-79
2021/07/05 00:46:59;;;;;;;;;;;;;;;-148.22;100.00;58358.63;4975533;28;1956;-79
2021/07/05 00:49:32;;;;;;;;;;;;;;;-148.22;100.00;58358.63;4975794;28;1176;-79
2021/07/05 00:52:07;;;;;;;;;;;;;;;-148.22;100.00;58358.63;4975634;28;1360;-79
2021/07/05 00:54:39;;;;;;;;;;;;;;;-148.22;100.00;58358.63;4975611;28;1216;-78
2021/07/05 00:57:24;;;;;;;;;;;;;;;-148.22;100.00;58358.63;4975519;28;1179;-79
2021/07/05 00:59:55;;;;;;;;;;;;;;;-148.22;100.00;58358.63;4982038;28;1331;-79
2021/07/05 01:02:31;;;;;;;;;;;;;;;-148.22;100.00;58358.63;4996117;28;807;-79
2021/07/05 01:04:58;;;;;;;;;;;;;;;-148.22;100.00;58358.63;4996127;28;1089;-78
2021/07/05 01:07:33;;;;;;;;;;;;;;;-148.22;100.00;58358.63;4996027;28;1890;-78
2021/07/05 01:09:59;;;;;;;;;;;;;;;-148.22;100.00;58358.63;4995749;28;1127;-78
2021/07/05 01:12:24;;;;;;;;;;;;;;;-148.22;100.00;58358.63;4994797;28;1309;-79
2021/07/05 01:14:50;;;;;;;;;;;;;;;-148.22;100.00;58358.63;4995960;28;1060;-79
2021/07/05 01:17:18;;;;;;;;;;;;;;;-148.22;100.00;58358.63;4994768;28;1211;-78
2021/07/05 01:19:46;;;;;;;;;;;;;;;-148.22;100.00;58358.63;4994850;28;1424;-79
2021/07/05 01:22:13;;;;;;;;;;;;;;;-148.22;100.00;58358.63;4995853;28;1057;-79
2021/07/05 01:24:41;;;;;;;;;;;;;;;-148.22;100.00;58358.63;4997797;28;1153;-79
2021/07/05 01:27:31;;;;;;;;;;;;;;;-148.22;100.00;58358.63;4999720;28;1976;-80
2021/07/05 01:30:09;;;;;;;;;;;;;;;-148.22;100.00;58358.63;5014952;28;1243;-78
2021/07/05 01:32:41;;;;;;;;;;;;;;;-148.22;100.00;58358.63;4999653;28;806;-79
2021/07/05 01:35:08;;;;;;;;;;;;;;;-148.22;100.00;58358.63;4998339;28;1207;-80
2021/07/05 01:37:33;;;;;;;;;;;;;;;-148.22;100.00;58358.63;4998453;28;1224;-79
2021/07/05 01:39:59;;;;;;;;;;;;;;;-148.22;100.00;58358.63;4999457;28;755;-78
2021/07/05 01:42:43;;;;;;;;;;;;;;;-148.22;100.00;58358.63;4998289;28;1276;-78
2021/07/05 01:45:22;;;;;;;;;;;;;;;-148.22;100.00;58358.63;4998317;28;1208;-79
2021/07/05 01:47:49;;;;;;;;;;;;;;;-148.22;100.00;58358.63;4998118;28;1947;-79
2021/07/05 01:50:21;;;;;;;;;;;;;;;-148.22;100.00;58358.63;4998202;28;1165;-78
2021/07/05 01:53:00;;;;;;;;;;;;;;;-148.22;100.00;58358.63;5014577;28;1248;-78
2021/07/05 01:55:39;;;;;;;;;;;;;;;-148.22;100.00;58358.63;4998075;28;1378;-78
2021/07/05 01:58:07;;;;;;;;;;;;;;;-148.22;100.00;58358.63;4999328;28;803;-78
2021/07/05 02:00:33;;;;;;;;;;;;;;;-148.22;100.00;58358.63;4999025;28;1237;-79
2021/07/05 02:03:07;;;;;;;;;;;;;;;-148.22;100.00;58358.63;4997937;28;1388;-79
2021/07/05 02:06:05;;;;;;;;;;;;;;;-148.22;100.00;58358.63;4999031;28;834;-79
2021/07/05 02:08:31;;;;;;;;;;;;;;;-148.22;100.00;58358.63;4998950;28;1951;-78
2021/07/05 02:10:56;;;;;;;;;;;;;;;-148.22;100.00;58358.63;4998695;28;1241;-78
2021/07/05 02:13:35;;;;;;;;;;;;;;;-148.22;100.00;58358.63;4998046;28;1284;-79
2021/07/05 02:16:11;;;;;;;;;;;;;;;-148.22;100.00;58358.63;4998857;28;1006;-78
2021/07/05 02:18:44;;;;;;;;;;;;;;;-148.22;100.00;58358.63;4997570;28;1284;-79
2021/07/05 02:21:11;;;;;;;;;;;;;;;-148.22;100.00;58358.63;4998816;28;843;-79
2021/07/05 02:23:45;;;;;;;;;;;;;;;-148.22;100.00;58358.63;4999007;28;851;-78
2021/07/05 02:26:11;;;;;;;;;;;;;;;-148.22;100.00;58358.63;4998666;28;2328;-79
2021/07/05 02:28:37;;;;;;;;;;;;;;;-148.22;100.00;58358.63;4998681;28;1005;-78
2021/07/05 02:31:04;;;;;;;;;;;;;;;-148.22;100.00;58358.63;4998686;28;973;-78
2021/07/05 02:33:32;;;;;;;;;;;;;;;-148.22;100.00;58358.63;4998566;28;1060;-78
2021/07/05 02:36:04;;;;;;;;;;;;;;;-148.22;100.00;58358.63;4998480;28;775;-79
2021/07/05 02:38:31;;;;;;;;;;;;;;;-148.22;100.00;58358.63;4998583;28;981;-78
2021/07/05 02:40:57;;;;;;;;;;;;;;;-148.22;100.00;58358.63;4981127;28;1193;-78
2021/07/05 02:43:24;;;;;;;;;;;;;;;-148.22;100.00;58358.63;4988810;28;1045;-78
2021/07/05 02:46:11;;;;;;;;;;;;;;;-148.22;100.00;58358.63;4997179;28;1283;-78
2021/07/05 02:48:40;;;;;;;;;;;;;;;-148.22;100.00;58358.63;4998382;28;1005;-78
2021/07/05 02:51:06;;;;;;;;;;;;;;;-148.22;100.00;58358.63;4997065;28;1191;-77
2021/07/05 02:53:44;;;;;;;;;;;;;;;-148.22;100.00;58358.63;4997093;28;1094;-78
2021/07/05 02:56:10;;;;;;;;;;;;;;;-148.22;100.00;58358.63;4996902;28;1232;-77
2021/07/05 02:58:44;;;;;;;;;;;;;;;-148.22;100.00;58358.63;4996992;28;1192;-78
2021/07/05 03:01:18;;;;;;;;;;;;;;;-148.22;100.00;58358.63;4996757;28;1291;-77
2021/07/05 03:03:51;;;;;;;;;;;;;;;-148.22;100.00;58358.63;4996957;28;1345;-77
2021/07/05 03:06:17;;;;;;;;;;;;;;;-148.22;100.00;58358.63;4997983;28;1886;-78
2021/07/05 03:08:44;;;;;;;;;;;;;;;-148.22;100.00;58358.63;4998026;28;862;-78
2021/07/05 03:11:09;;;;;;;;;;;;;;;-148.22;100.00;58358.63;4997826;28;1265;-78
2021/07/05 03:13:44;;;;;;;;;;;;;;;-148.22;100.00;58358.63;4996573;28;1228;-78
2021/07/05 03:16:19;;;;;;;;;;;;;;;-148.22;100.00;58358.63;4997896;28;850;-77
2021/07/05 03:18:57;;;;;;;;;;;;;;;-148.22;100.00;58358.63;4996604;28;1329;-78
2021/07/05 03:21:23;;;;;;;;;;;;;;;-148.22;100.00;58358.63;4997794;28;944;-77
2021/07/05 03:23:49;;;;;;;;;;;;;;;-148.22;100.00;58358.63;4996290;28;1184;-78
2021/07/05 03:26:20;;;;;;;;;;;;;;;-148.22;100.00;58358.63;4996384;28;1906;-78
2021/07/05 03:29:15;;;;;;;;;;;;;;;-148.22;100.00;58358.63;4996398;28;1193;-78
2021/07/05 03:31:58;;;;;;;;;;;;;;;-148.22;100.00;58358.63;4976073;28;1012;-78
2021/07/05 03:34:26;;;;;;;;;;;;;;;-148.22;100.00;58358.63;4959772;28;1349;-77
2021/07/05 03:36:52;;;;;;;;;;;;;;;-148.22;100.00;58358.63;4959829;28;1370;-78
2021/07/05 03:39:17;;;;;;;;;;;;;;;-148.22;100.00;58358.63;4959638;28;1266;-78
2021/07/05 03:41:43;;;;;;;;;;;;;;;-148.22;100.00;58358.63;4959517;28;1194;-77
2021/07/05 03:44:09;;;;;;;;;;;;;;;-148.22;100.00;58358.63;4959547;28;1257;-78
2021/07/05 03:46:35;;;;;;;;;;;;;;;-148.22;100.00;58358.63;4975240;28;1967;-78
2021/07/05 03:49:01;;;;;;;;;;;;;;;-148.22;100.00;58358.63;4973462;28;962;-78
2021/07/05 03:51:26;;;;;;;;;;;;;;;-148.22;100.00;58358.63;4974473;28;1247;-77
2021/07/05 03:54:05;;;;;;;;;;;;;;;-148.22;100.00;58358.63;4959500;28;1281;-78
2021/07/05 03:56:33;;;;;;;;;;;;;;;-148.22;100.00;58358.63;4956435;28;1130;-77
2021/07/05 03:59:14;;;;;;;;;;;;;;;-148.22;100.00;58358.63;4954893;28;1256;-77
2021/07/05 04:01:41;;;;;;;;;;;;;;;-148.22;100.00;58358.63;4959239;28;1324;-78
2021/07/05 04:04:07;;;;;;;;;;;;;;;-148.22;100.00;58358.63;4959179;28;1454;-78
2021/07/05 04:06:42;;;;;;;;;;;;;;;-148.22;100.00;58358.63;4975251;28;1981;-78
2021/07/05 04:09:09;;;;;;;;;;;;;;;-148.22;100.00;58358.63;4995626;28;1085;-77
2021/07/05 04:11:35;;;;;;;;;;;;;;;-148.22;100.00;58358.63;4996682;28;1334;-78
2021/07/05 04:14:02;;;;;;;;;;;;;;;-148.22;100.00;58358.63;4995832;28;1203;-78
2021/07/05 04:16:29;;;;;;;;;;;;;;;-148.22;100.00;58358.63;5011733;28;1165;-77
2021/07/05 04:18:58;;;;;;;;;;;;;;;-148.22;100.00;58358.63;4995479;28;1257;-78
2021/07/05 04:21:40;;;;;;;;;;;;;;;-148.22;100.00;58358.63;5011655;28;1306;-78
2021/07/05 04:24:07;;;;;;;;;;;;;;;-148.22;100.00;58358.63;4993473;28;1312;-78
2021/07/05 04:26:34;;;;;;;;;;;;;;;-148.22;100.00;58358.63;4993866;28;1906;-77
2021/07/05 04:29:01;;;;;;;;;;;;;;;-148.22;100.00;58358.63;4996492;28;994;-78
2021/07/05 04:31:28;;;;;;;;;;;;;;;-148.22;100.00;58358.63;4983455;28;1318;-78
2021/07/05 04:33:55;;;;;;;;;;;;;;;-148.22;100.00;58358.63;4977036;28;898;-78
2021/07/05 04:36:20;;;;;;;;;;;;;;;-148.22;100.00;58358.63;4975716;28;1647;-78
2021/07/05 04:39:06;;;;;;;;;;;;;;;-148.22;100.00;58358.63;4989065;28;1327;-78
2021/07/05 04:41:33;;;;;;;;;;;;;;;-148.22;100.00;58358.63;4995266;28;1223;-79
2021/07/05 04:43:58;;;;;;;;;;;;;;;-148.22;100.00;58358.63;4995113;28;1196;-77
2021/07/05 04:46:39;;;;;;;;;;;;;;;-148.22;100.00;58358.63;4994993;28;1953;-79
2021/07/05 04:49:05;;;;;;;;;;;;;;;-148.22;100.00;58358.63;4995115;28;1283;-79
2021/07/05 04:51:30;;;;;;;;;;;;;;;-148.22;100.00;58358.63;4994966;28;1264;-78
2021/07/05 04:54:26;;;;;;;;;;;;;;;-148.22;100.00;58358.63;4995031;28;1316;-79
2021/07/05 04:56:52;;;;;;;;;;;;;;;-148.22;100.00;58358.63;4973745;28;1250;-77
2021/07/05 04:59:28;;;;;;;;;;;;;;;-148.22;100.00;58358.63;4975801;28;1181;-78
2021/07/05 05:01:54;;;;;;;;;;;;;;;-148.22;100.00;58358.63;4978891;28;985;-78
2021/07/05 05:04:39;;;;;;;;;;;;;;;-148.22;100.00;58358.63;4978807;28;864;-78
2021/07/05 05:07:19;;;;;;;;;;;;;;;-148.22;100.00;58358.63;4962247;28;1938;-78
2021/07/05 05:10:18;;;;;;;;;;;;;;;-148.22;100.00;58358.63;4974695;28;994;-77
2021/07/05 05:12:43;;;;;;;;;;;;;;;-148.22;100.00;58358.63;4959354;28;1375;-77
2021/07/05 05:15:09;;;;;;;;;;;;;;;-148.22;100.00;58358.63;4943174;29;1178;-78
2021/07/05 05:17:36;;;;;;;;;;;;;;;-148.22;100.00;58358.63;4943050;29;1198;-79
2021/07/05 05:20:03;;;;;;;;;;;;;;;-148.22;100.00;58358.63;4959269;29;957;-80
2021/07/05 05:22:30;;;;;;;;;;;;;;;-148.22;100.00;58358.63;4942933;29;1234;-78
2021/07/05 05:24:55;;;;;;;;;;;;;;;-148.22;100.00;58358.63;4943052;29;1198;-78
2021/07/05 05:27:22;;;;;;;;;;;;;;;-148.22;100.00;58358.63;4942915;29;1976;-78
2021/07/05 05:30:26;;;;;;;;;;;;;;;-148.22;100.00;58358.63;4958975;29;781;-79
2021/07/05 05:35:54;;;;;;;;;;;;;;;-148.22;100.00;58358.63;4939765;29;607;-78
2021/07/05 05:38:20;;;;;;;;;;;;;;;-148.22;100.00;58358.63;4939733;29;932;-78
2021/07/05 05:40:47;;;;;;;;;;;;;;;-148.22;100.00;58358.63;4939670;29;875;-78
2021/07/05 05:43:13;;;;;;;;;;;;;;;-148.22;100.00;58358.63;4923695;29;1257;-79
2021/07/05 05:45:38;;;;;;;;;;;;;;;-148.22;100.00;58358.63;4923653;29;1311;-79
2021/07/05 05:48:04;;;;;;;;;;;;;;;-148.22;100.00;58358.63;4923412;29;1949;-79
2021/07/05 05:51:01;;;;;;;;;;;;;;;-148.22;100.00;58358.63;4939319;29;1046;-79
2021/07/05 05:53:27;;;;;;;;;;;;;;;-148.22;100.00;58358.63;4958347;29;1341;-79
2021/07/05 05:56:08;;;;;;;;;;;;;;;-148.22;100.00;58358.63;4941700;29;1198;-79
2021/07/05 05:58:39;;;;;;;;;;;;;;;-148.22;100.00;58358.63;4958027;29;939;-78
2021/07/05 06:01:06;;;;;;;;;;;;;;;-148.22;100.00;58358.63;4942357;29;1318;-79
2021/07/05 06:03:32;;;;;;;;;;;;;;;-148.22;100.00;58358.63;4951322;28;1686;-78
2021/07/05 06:05:59;;;;;;;;;;;;;;;-148.22;100.00;58358.63;4977551;28;1807;-77
2021/07/05 06:08:26;;;;;;;;;;;;;;;-148.22;100.00;58358.63;4957334;28;1944;-79
2021/07/05 06:10:52;;;;;;;;;;;;;;;-148.22;100.00;58358.63;4960156;28;1073;-79
2021/07/05 06:13:17;;;;;;;;;;;;;;;-148.22;100.00;58358.63;4977591;28;1234;-78
2021/07/05 06:15:43;;;;;;;;;;;;;;;-148.22;100.00;58358.63;4970036;28;1641;-77
2021/07/05 06:18:10;;;;;;;;;;;;;;;-148.22;100.00;58358.63;4980414;28;1166;-78
2021/07/05 06:20:45;;;;;;;;;;;;;;;-148.22;100.00;58358.63;4980691;28;1312;-78
2021/07/05 06:25:49;;;;;;;;;;;;;;;-148.22;100.00;58358.63;4996831;28;808;-78
2021/07/05 06:28:24;;;;;;;;;;;;;;;-148.22;100.00;58358.63;4996734;28;1976;-78
2021/07/05 06:30:50;;;;;;;;;;;;;;;-148.22;100.00;58358.63;4978110;28;1363;-78
2021/07/05 06:33:16;;;;;;;;;;;;;;;-148.22;100.00;58358.63;4979322;28;819;-78
2021/07/05 06:35:42;;;;;;;;;;;;;;;-148.22;100.00;58358.63;4997135;28;1624;-80
2021/07/05 06:38:09;;;;;;;;;;;;;;;-148.22;100.00;58358.63;4997525;28;1209;-80
2021/07/05 06:40:34;;;;;;;;;;;;;;;-148.22;100.00;58358.63;4998461;28;1569;-80
2021/07/05 06:43:06;;;;;;;;;;;;;;;-148.22;100.00;58358.63;4998376;28;1619;-79
2021/07/05 06:45:32;;;;;;;;;;;;;;;-148.22;100.00;58358.63;4996731;28;1062;-79
2021/07/05 06:47:57;;;;;;;;;;;;;;;-148.22;100.00;58358.63;4997070;28;1886;-79
2021/07/05 06:50:24;;;;;;;;;;;;;;;-148.22;100.00;58358.63;4997079;28;1133;-79
2021/07/05 06:52:50;;;;;;;;;;;;;;;-148.22;100.00;58358.63;4994501;28;1623;-79
2021/07/05 06:55:15;;;;;;;;;;;;;;;-148.22;100.00;58358.63;4986869;28;1485;-81
2021/07/05 06:57:41;;;;;;;;;;;;;;;-148.22;100.00;58358.63;4982250;28;1460;-80
2021/07/05 07:00:09;;;;;;;;;;;;;;;-148.22;100.00;58358.63;4986280;28;1579;-81
2021/07/05 07:02:35;;;;;;;;;;;;;;;-148.22;100.00;58358.63;4997381;28;1303;-80
2021/07/05 07:05:04;;;;;;;;;;;;;;;-148.22;100.00;58358.63;4982749;28;1635;-79
2021/07/05 07:07:29;;;;;;;;;;;;;;;-148.22;100.00;58358.63;4978666;28;1882;-80
2021/07/05 07:09:55;;;;;;;;;;;;;;;-148.22;100.00;58358.63;4986465;28;1614;-80
2021/07/05 07:12:20;;;;;;;;;;;;;;;-148.22;100.00;58358.63;4996346;28;1650;-80
2021/07/05 07:14:46;;;;;;;;;;;;;;;-148.22;100.00;58358.63;4996674;28;1609;-80
2021/07/05 07:17:25;;;;;;;;;;;;;;;-148.22;100.00;58358.63;4997831;28;807;-80
2021/07/05 07:19:52;;;;;;;;;;;;;;;-148.22;100.00;58358.63;4994847;28;1248;-80
2021/07/05 07:22:23;;;;;;;;;;;;;;;-148.22;100.00;58358.63;4995535;28;1504;-80
2021/07/05 07:24:54;;;;;;;;;;;;;;;-148.22;100.00;58358.63;4996405;28;1539;-80
2021/07/05 07:27:21;;;;;;;;;;;;;;;-148.22;100.00;58358.63;4997107;28;1899;-80
2021/07/05 07:29:46;;;;;;;;;;;;;;;-148.22;100.00;58358.63;4997398;28;1582;-81
2021/07/05 07:32:13;;;;;;;;;;;;;;;-148.22;100.00;58358.63;4996271;28;1677;-81
2021/07/05 07:34:39;;;;;;;;;;;;;;;-148.22;100.00;58358.63;4996105;28;1570;-81
2021/07/05 07:37:07;;;;;;;;;;;;;;;-148.22;100.00;58358.63;4997589;28;1412;-81
2021/07/05 07:40:13;;;;;;;;;;;;;;;-148.22;100.00;58358.63;4997520;28;865;-81
2021/07/05 07:42:30;;;;;;;;;;;;;;;-148.22;100.00;58358.63;4995421;28;1102;-81
2021/07/05 07:44:55;;;;;;;;;;;;;;;-148.22;100.00;58358.63;4997366;28;973;-81
2021/07/05 07:47:47;;;;;;;;;;;;;;;-148.22;100.00;58358.63;4995864;28;2015;-81
2021/07/05 07:50:13;;;;;;;;;;;;;;;-148.22;100.00;58358.63;4997696;28;1555;-80
2021/07/05 07:52:39;;;;;;;;;;;;;;;-148.22;100.00;58358.63;5014519;28;1318;-79
2021/07/05 07:55:06;;;;;;;;;;;;;;;-148.22;100.00;58358.63;5014466;28;1479;-79
2021/07/05 07:57:33;;;;;;;;;;;;;;;-148.22;100.00;58358.63;4998394;28;1394;-80
2021/07/05 07:59:58;;;;;;;;;;;;;;;-148.22;100.00;58358.63;4992383;28;1544;-79
2021/07/05 08:02:23;;;;;;;;;;;;;;;-148.22;100.00;58358.63;4992381;28;1768;-79
2021/07/05 08:04:57;;;;;;;;;;;;;;;-148.22;100.00;58358.63;4995061;28;1010;-80
2021/07/05 08:07:24;;;;;;;;;;;;;;;-148.22;100.00;58358.63;5009880;28;1874;-79
2021/07/05 08:09:53;;;;;;;;;;;;;;;-148.22;100.00;58358.63;4998160;28;1124;-79
2021/07/05 08:12:18;;;;;;;;;;;;;;;-148.22;100.00;58358.63;5014240;28;1359;-79
2021/07/05 08:14:43;;;;;;;;;;;;;;;-148.22;100.00;58358.63;5014178;28;1563;-78
2021/07/05 08:17:09;;;;;;;;;;;;;;;-148.22;100.00;58358.63;5014387;28;916;-79
2021/07/05 08:19:35;;;;;;;;;;;;;;;-148.22;100.00;58358.63;4998038;28;1211;-79
2021/07/05 08:22:00;;;;;;;;;;;;;;;-148.22;100.00;58358.63;5014512;28;894;-77
2021/07/05 08:24:25;;;;;;;;;;;;;;;-148.22;100.00;58358.63;4998006;28;1318;-77
2021/07/05 08:26:52;;;;;;;;;;;;;;;-148.22;100.00;58358.63;5006231;28;1910;-78
2021/07/05 08:29:17;;;;;;;;;;;;;;;-148.22;100.00;58358.63;4996501;28;795;-78
2021/07/05 08:31:44;;;;;;;;;;;;;;;-148.22;100.00;58358.63;4995529;28;1319;-78
2021/07/05 08:34:10;;;;;;;;;;;;;;;-148.22;100.00;58358.63;4994993;28;1349;-77
2021/07/05 08:36:39;;;;;;;;;;;;;;;-148.22;100.00;58358.63;4991641;28;1484;-77
2021/07/05 08:39:06;;;;;;;;;;;;;;;-148.22;100.00;58358.63;4996399;28;1409;-78
2021/07/05 08:41:31;;;;;;;;;;;;;;;-148.22;100.00;58358.63;4996019;28;1428;-77
2021/07/05 08:43:58;;;;;;;;;;;;;;;-148.22;100.00;58358.63;4987025;28;1229;-77
2021/07/05 08:46:23;;;;;;;;;;;;;;;-148.22;100.00;58358.63;4994771;28;1547;-77
2021/07/05 08:48:50;;;;;;;;;;;;;;;-148.22;100.00;58358.63;4994978;28;1496;-78
2021/07/05 08:51:20;;;;;;;;;;;;;;;-148.22;100.00;58358.63;4995006;28;1285;-77
2021/07/05 08:53:46;;;;;;;;;;;;;;;-148.22;100.00;58358.63;4994685;28;1694;-77
2021/07/05 08:56:12;;;;;;;;;;;;;;;-148.22;100.00;58358.63;4994797;28;1638;-78
2021/07/05 08:58:41;;;;;;;;;;;;;;;-148.22;100.00;58358.63;4996114;28;886;-77
2021/07/05 09:01:16;;;;;;;;;;;;;;;-148.22;100.00;58358.63;4994552;28;1690;-78
2021/07/05 09:03:42;;;;;;;;;;;;;;;-148.22;100.00;58358.63;4980256;28;1376;-78
2021/07/05 09:06:12;;;;;;;;;;;;;;;-148.22;100.00;58358.63;4995838;28;1535;-78
2021/07/05 09:08:40;;;;;;;;;;;;;;;-148.22;100.00;58358.63;4995731;28;1894;-78
2021/07/05 09:11:10;;;;;;;;;;;;;;;-148.22;100.00;58358.63;4993832;28;1173;-78
2021/07/05 09:13:46;;;;;;;;;;;;;;;-148.22;100.00;58358.63;5007733;28;1313;-79
2021/07/05 09:16:11;;;;;;;;;;;;;;;-148.22;100.00;58358.63;4987551;28;1317;-79
2021/07/05 09:18:43;;;;;;;;;;;;;;;-148.22;100.00;58358.63;4983208;28;1279;-78
2021/07/05 09:21:11;;;;;;;;;;;;;;;-148.22;100.00;58358.63;4994643;28;1275;-78
2021/07/05 09:24:00;;;;;;;;;;;;;;;-148.22;100.00;58358.63;5015003;28;1298;-77
2021/07/05 09:26:29;;;;;;;;;;;;;;;-148.22;100.00;58358.63;4988703;28;1960;-80
2021/07/05 09:28:56;;;;;;;;;;;;;;;-148.22;100.00;58358.63;4993264;28;1667;-79
2021/07/05 09:31:36;;;;;;;;;;;;;;;-148.22;100.00;58358.63;4985676;28;1288;-79
2021/07/05 09:34:02;;;;;;;;;;;;;;;-148.22;100.00;58358.63;4985288;28;1310;-79
2021/07/05 09:36:27;;;;;;;;;;;;;;;-148.22;100.00;58358.63;4994580;28;1228;-78
2021/07/05 09:38:54;;;;;;;;;;;;;;;-148.22;100.00;58358.63;4988512;28;1208;-78
2021/07/05 09:41:27;;;;;;;;;;;;;;;-148.22;100.00;58358.63;4980108;28;1353;-78
2021/07/05 09:43:56;;;;;;;;;;;;;;;-148.22;100.00;58358.63;4994702;28;1401;-79
2021/07/05 09:46:34;;;;;;;;;;;;;;;-148.22;100.00;58358.63;4993693;28;1654;-79
2021/07/05 09:49:19;;;;;;;;;;;;;;;-148.22;100.00;58358.63;4992638;28;1326;-78
2021/07/05 09:51:46;;;;;;;;;;;;;;;-148.22;100.00;58358.63;4989198;28;1364;-76
2021/07/05 09:54:16;;;;;;;;;;;;;;;-148.22;100.00;58358.63;4990978;28;1204;-79
2021/07/05 09:56:45;;;;;;;;;;;;;;;-148.22;100.00;58358.63;4984119;28;1293;-79
2021/07/05 09:59:16;;;;;;;;;;;;;;;-148.22;100.00;58358.63;4982945;28;1310;-80
2021/07/05 10:01:45;;;;;;;;;;;;;;;-148.22;100.00;58358.63;4992502;28;1505;-80
2021/07/05 10:04:11;;;;;;;;;;;;;;;-148.22;100.00;58358.63;4996119;28;1511;-80
2021/07/05 10:06:49;;;;;;;;;;;;;;;-148.22;100.00;58358.63;4995464;28;1890;-79
2021/07/05 10:09:19;;;;;;;;;;;;;;;-148.22;100.00;58358.63;4998502;28;1570;-79
2021/07/05 10:11:44;;;;;;;;;;;;;;;-148.22;100.00;58358.63;4991108;28;1193;-79
2021/07/05 10:14:20;;;;;;;;;;;;;;;-148.22;100.00;58358.63;4997830;28;1330;-80
2021/07/05 10:16:47;;;;;;;;;;;;;;;-148.22;100.00;58358.63;4998947;28;846;-79
2021/07/05 10:19:14;;;;;;;;;;;;;;;-148.22;100.00;58358.63;4997644;28;1244;-79
2021/07/05 10:21:45;;;;;;;;;;;;;;;-148.22;100.00;58358.63;4997740;28;1224;-79
2021/07/05 10:24:11;;;;;;;;;;;;;;;-148.22;100.00;58358.63;4997276;28;1512;-80
2021/07/05 10:26:46;;;;;;;;;;;;;;;-148.22;100.00;58358.63;4997480;28;1906;-79
2021/07/05 10:29:13;;;;;;;;;;;;;;;-148.22;100.00;58358.63;4991146;28;1286;-79
2021/07/05 10:31:40;;;;;;;;;;;;;;;-148.22;100.00;58358.63;4978172;28;1296;-79
2021/07/05 10:34:06;;;;;;;;;;;;;;;-148.22;100.00;58358.63;4979269;28;842;-79
2021/07/05 10:36:34;;;;;;;;;;;;;;;-148.22;100.00;58358.63;4979116;28;906;-79
2021/07/05 10:39:01;;;;;;;;;;;;;;;-148.22;100.00;58358.63;4995006;28;1256;-78
2021/07/05 10:41:36;;;;;;;;;;;;;;;-148.22;100.00;58358.63;4998527;28;1408;-79
2021/07/05 10:44:05;;;;;;;;;;;;;;;-148.22;100.00;58358.63;4997404;28;1188;-79
2021/07/05 10:46:41;;;;;;;;;;;;;;;-148.22;100.00;58358.63;5013499;28;1882;-79
2021/07/05 10:49:07;;;;;;;;;;;;;;;-148.22;100.00;58358.63;4998500;28;830;-79
2021/07/05 10:51:43;;;;;;;;;;;;;;;-148.22;100.00;58358.63;4997171;28;1248;-78
2021/07/05 10:54:09;;;;;;;;;;;;;;;-148.22;100.00;58358.63;4997110;28;1313;-79
2021/07/05 10:56:41;;;;;;;;;;;;;;;-148.22;100.00;58358.63;4997107;28;1006;-79
2021/07/05 10:59:13;;;;;;;;;;;;;;;-148.22;100.00;58358.63;4991269;28;1579;-79
2021/07/05 11:01:40;;;;;;;;;;;;;;;-148.22;100.00;58358.63;4979403;28;1655;-79
2021/07/05 11:04:28;;;;;;;;;;;;;;;-148.22;100.00;58358.63;4998501;28;756;-78
2021/07/05 11:06:56;;;;;;;;;;;;;;;-148.22;100.00;58358.63;4996891;28;1948;-79
2021/07/05 11:09:23;;;;;;;;;;;;;;;-148.22;100.00;58358.63;4997950;28;1742;-79
2021/07/05 11:11:59;;;;;;;;;;;;;;;-148.22;100.00;58358.63;4973428;28;1145;-79
2021/07/05 11:14:33;;;;;;;;;;;;;;;-148.22;100.00;58358.63;4993587;28;1204;-79
2021/07/05 11:17:18;;;;;;;;;;;;;;;-148.22;100.00;58358.63;4993366;28;1325;-78
2021/07/05 11:19:43;;;;;;;;;;;;;;;-148.22;100.00;58358.63;4978434;28;811;-80
2021/07/05 11:22:35;;;;;;;;;;;;;;;-148.22;100.00;58358.63;4992560;28;1671;-78
2021/07/05 11:25:09;;;;;;;;;;;;;;;-148.22;100.00;58358.63;4998963;28;1186;-79
2021/07/05 11:27:46;;;;;;;;;;;;;;;-148.22;100.00;58358.63;5015175;28;1914;-78
2021/07/05 11:30:13;;;;;;;;;;;;;;;-148.22;100.00;58358.63;4998645;28;1370;-79
2021/07/05 11:32:49;;;;;;;;;;;;;;;-148.22;100.00;58358.63;4998436;28;1656;-79
2021/07/05 11:35:27;;;;;;;;;;;;;;;-148.22;100.00;58358.63;5014400;28;1394;-79
2021/07/05 11:37:54;;;;;;;;;;;;;;;-148.22;100.00;58358.63;4996110;28;1189;-78
2021/07/05 11:40:38;;;;;;;;;;;;;;;-148.22;100.00;58358.63;5002829;28;1398;-80
2021/07/05 11:43:03;;;;;;;;;;;;;;;-148.22;100.00;58358.63;5012884;28;1433;-79
2021/07/05 11:45:50;;;;;;;;;;;;;;;-148.22;100.00;58358.63;4982992;28;1644;-79
2021/07/05 11:48:36;;;;;;;;;;;;;;;-148.22;100.00;58358.63;5014566;28;1899;-78
2021/07/05 11:51:02;;;;;;;;;;;;;;;-148.22;100.00;58358.63;4956291;29;1356;-79
2021/07/05 11:53:27;;;;;;;;;;;;;;;-148.22;100.00;58358.63;4932883;29;1246;-79
2021/07/05 11:56:04;;;;;;;;;;;;;;;-148.22;100.00;58358.63;4956378;29;1154;-79
2021/07/05 11:58:32;;;;;;;;;;;;;;;-148.22;100.00;58358.63;4940179;29;1185;-80
2021/07/05 12:01:09;;;;;;;;;;;;;;;-148.22;100.00;58358.63;4955941;28;1316;-79
2021/07/05 12:03:48;;;;;;;;;;;;;;;-148.22;100.00;58358.63;4937626;29;1257;-80
2021/07/05 12:06:13;;;;;;;;;;;;;;;-148.22;100.00;58358.63;4936867;29;974;-80
2021/07/05 12:08:40;;;;;;;;;;;;;;;-148.22;100.00;58358.63;4920418;29;1898;-79
2021/07/05 12:11:07;;;;;;;;;;;;;;;-148.22;100.00;58358.63;4942783;29;1329;-80
2021/07/05 12:13:32;;;;;;;;;;;;;;;-148.22;100.00;58358.63;4939611;29;1293;-79
2021/07/05 12:16:03;;;;;;;;;;;;;;;-148.22;100.00;58358.63;4954495;29;1482;-80
2021/07/05 12:18:28;;;;;;;;;;;;;;;-148.22;100.00;58358.63;4939753;29;1293;-79
2021/07/05 12:21:03;;;;;;;;;;;;;;;-148.22;100.00;58358.63;4955951;29;1006;-80
2021/07/05 12:23:40;;;;;;;;;;;;;;;-148.22;100.00;58358.63;4939378;29;1367;-79
2021/07/05 12:26:12;;;;;;;;;;;;;;;-148.22;100.00;58358.63;4937308;29;1347;-79
2021/07/05 12:28:58;;;;;;;;;;;;;;;-148.22;100.00;58358.63;4977162;28;1965;-80
2021/07/05 12:31:30;;;;;;;;;;;;;;;-148.22;100.00;58358.63;4994824;28;1174;-79
2021/07/05 12:33:58;;;;;;;;;;;;;;;-148.22;100.00;58358.63;4994710;28;1205;-79
2021/07/05 12:36:25;;;;;;;;;;;;;;;-148.22;100.00;58358.63;4996328;28;897;-79
2021/07/05 12:39:05;;;;;;;;;;;;;;;-148.22;100.00;58358.63;4995087;28;1246;-79
2021/07/05 12:41:31;;;;;;;;;;;;;;;-148.22;100.00;58358.63;4994817;28;1255;-80
2021/07/05 12:44:10;;;;;;;;;;;;;;;-148.22;100.00;58358.63;4994693;28;1437;-79
2021/07/05 12:46:41;;;;;;;;;;;;;;;-148.22;100.00;58358.63;4985866;28;1890;-79
2021/07/05 12:49:07;;;;;;;;;;;;;;;-148.22;100.00;58358.63;4976788;28;784;-79
2021/07/05 12:51:34;;;;;;;;;;;;;;;-148.22;100.00;58358.63;4975713;28;1324;-79